sensor_id;sensor_type;location;lat;lon;timestamp;temperature;humidity
3954;DHT22;1991;48.682;9.030;2023-04-25T00:01:05;8.60;99.90
3954;DHT22;1991;48.682;9.030;2023-04-25T00:03:32;8.60;99.90
3954;DHT22;1991;48.682;9.030;2023-04-25T00:06:00;8.60;99.90
3954;DHT22;1991;48.682;9.030;2023-04-25T00:08:29;8.60;99.90
3954;DHT22;1991;48.682;9.030;2023-04-25T00:10:56;8.50;99.90
3954;DHT22;1991;48.682;9.030;2023-04-25T00:13:22;8.60;99.90
3954;DHT22;1991;48.682;9.030;2023-04-25T00:15:48;8.60;99.90
3954;DHT22;1991;48.682;9.030;2023-04-25T00:18:14;8.60;99.90
3954;DHT22;1991;48.682;9.030;2023-04-25T00:20:40;8.50;99.90
3954;DHT22;1991;48.682;9.030;2023-04-25T00:23:13;8.50;99.90
3954;DHT22;1991;48.682;9.030;2023-04-25T00:25:44;8.50;99.90
3954;DHT22;1991;48.682;9.030;2023-04-25T00:28:10;8.50;99.90
3954;DHT22;1991;48.682;9.030;2023-04-25T00:30:36;8.50;99.90
3954;DHT22;1991;48.682;9.030;2023-04-25T00:33:02;8.50;99.90
3954;DHT22;1991;48.682;9.030;2023-04-25T00:35:27;8.50;99.90
3954;DHT22;1991;48.682;9.030;2023-04-25T00:37:54;8.50;99.90
3954;DHT22;1991;48.682;9.030;2023-04-25T00:40:20;8.40;99.90
3954;DHT22;1991;48.682;9.030;2023-04-25T00:42:47;8.50;99.90
3954;DHT22;1991;48.682;9.030;2023-04-25T00:45:13;8.40;99.90
3954;DHT22;1991;48.682;9.030;2023-04-25T00:47:40;8.40;99.90
3954;DHT22;1991;48.682;9.030;2023-04-25T00:50:07;8.40;99.90
3954;DHT22;1991;48.682;9.030;2023-04-25T00:52:33;8.40;99.90
3954;DHT22;1991;48.682;9.030;2023-04-25T00:54:59;8.40;99.90
3954;DHT22;1991;48.682;9.030;2023-04-25T00:57:25;8.40;99.90
3954;DHT22;1991;48.682;9.030;2023-04-25T00:59:51;8.40;99.90
3954;DHT22;1991;48.682;9.030;2023-04-25T01:02:18;8.40;99.90
3954;DHT22;1991;48.682;9.030;2023-04-25T01:04:44;8.40;99.90
3954;DHT22;1991;48.682;9.030;2023-04-25T01:07:10;8.40;99.90
3954;DHT22;1991;48.682;9.030;2023-04-25T01:09:36;8.40;99.90
3954;DHT22;1991;48.682;9.030;2023-04-25T01:12:02;8.40;99.90
3954;DHT22;1991;48.682;9.030;2023-04-25T01:14:28;8.40;99.90
3954;DHT22;1991;48.682;9.030;2023-04-25T01:16:55;8.40;99.90
3954;DHT22;1991;48.682;9.030;2023-04-25T01:19:21;8.40;99.90
3954;DHT22;1991;48.682;9.030;2023-04-25T01:21:47;8.30;99.90
3954;DHT22;1991;48.682;9.030;2023-04-25T01:24:12;8.10;99.90
3954;DHT22;1991;48.682;9.030;2023-04-25T01:26:39;8.00;99.90
3954;DHT22;1991;48.682;9.030;2023-04-25T01:29:07;7.90;99.90
3954;DHT22;1991;48.682;9.030;2023-04-25T01:31:33;7.80;99.90
3954;DHT22;1991;48.682;9.030;2023-04-25T01:34:00;7.70;99.90
3954;DHT22;1991;48.682;9.030;2023-04-25T01:36:26;7.70;99.90
3954;DHT22;1991;48.682;9.030;2023-04-25T01:38:52;7.60;99.90
3954;DHT22;1991;48.682;9.030;2023-04-25T01:41:18;7.60;99.90
3954;DHT22;1991;48.682;9.030;2023-04-25T01:43:44;7.60;99.90
3954;DHT22;1991;48.682;9.030;2023-04-25T01:46:11;7.60;99.90
3954;DHT22;1991;48.682;9.030;2023-04-25T01:48:37;7.60;99.90
3954;DHT22;1991;48.682;9.030;2023-04-25T01:51:03;7.60;99.90
3954;DHT22;1991;48.682;9.030;2023-04-25T01:53:28;7.50;99.90
3954;DHT22;1991;48.682;9.030;2023-04-25T01:55:54;7.60;99.90
3954;DHT22;1991;48.682;9.030;2023-04-25T01:58:20;7.60;99.90
3954;DHT22;1991;48.682;9.030;2023-04-25T02:00:46;7.60;99.90
3954;DHT22;1991;48.682;9.030;2023-04-25T02:03:12;7.60;99.90
3954;DHT22;1991;48.682;9.030;2023-04-25T02:05:38;7.60;99.90
3954;DHT22;1991;48.682;9.030;2023-04-25T02:08:08;7.60;99.90
3954;DHT22;1991;48.682;9.030;2023-04-25T02:10:34;7.60;99.90
3954;DHT22;1991;48.682;9.030;2023-04-25T02:13:00;7.60;99.90
3954;DHT22;1991;48.682;9.030;2023-04-25T02:15:26;7.60;99.90
3954;DHT22;1991;48.682;9.030;2023-04-25T02:17:52;7.50;99.90
3954;DHT22;1991;48.682;9.030;2023-04-25T02:20:21;7.50;99.90
3954;DHT22;1991;48.682;9.030;2023-04-25T02:22:47;7.50;99.90
3954;DHT22;1991;48.682;9.030;2023-04-25T02:25:13;7.50;99.90
3954;DHT22;1991;48.682;9.030;2023-04-25T02:27:38;7.50;99.90
3954;DHT22;1991;48.682;9.030;2023-04-25T02:30:05;7.50;99.90
3954;DHT22;1991;48.682;9.030;2023-04-25T02:32:32;7.50;99.90
3954;DHT22;1991;48.682;9.030;2023-04-25T02:34:57;7.50;99.90
3954;DHT22;1991;48.682;9.030;2023-04-25T02:37:29;7.50;99.90
3954;DHT22;1991;48.682;9.030;2023-04-25T02:39:55;7.50;99.90
3954;DHT22;1991;48.682;9.030;2023-04-25T02:42:20;7.50;99.90
3954;DHT22;1991;48.682;9.030;2023-04-25T02:44:46;7.50;99.90
3954;DHT22;1991;48.682;9.030;2023-04-25T02:47:11;7.50;99.90
3954;DHT22;1991;48.682;9.030;2023-04-25T02:49:37;7.50;99.90
3954;DHT22;1991;48.682;9.030;2023-04-25T02:52:02;7.50;99.90
3954;DHT22;1991;48.682;9.030;2023-04-25T02:54:28;7.50;99.90
3954;DHT22;1991;48.682;9.030;2023-04-25T02:56:54;7.50;99.90
3954;DHT22;1991;48.682;9.030;2023-04-25T02:59:19;7.40;99.90
3954;DHT22;1991;48.682;9.030;2023-04-25T03:01:45;7.40;99.90
3954;DHT22;1991;48.682;9.030;2023-04-25T03:04:11;7.40;99.90
3954;DHT22;1991;48.682;9.030;2023-04-25T03:06:36;7.40;99.90
3954;DHT22;1991;48.682;9.030;2023-04-25T03:09:02;7.50;99.90
3954;DHT22;1991;48.682;9.030;2023-04-25T03:11:29;7.50;99.90
3954;DHT22;1991;48.682;9.030;2023-04-25T03:13:54;7.50;99.90
3954;DHT22;1991;48.682;9.030;2023-04-25T03:16:20;7.50;99.90
3954;DHT22;1991;48.682;9.030;2023-04-25T03:18:46;7.50;99.90
3954;DHT22;1991;48.682;9.030;2023-04-25T03:21:11;7.60;99.90
3954;DHT22;1991;48.682;9.030;2023-04-25T03:23:37;7.60;99.90
3954;DHT22;1991;48.682;9.030;2023-04-25T03:26:03;7.60;99.90
3954;DHT22;1991;48.682;9.030;2023-04-25T03:28:28;7.60;99.90
3954;DHT22;1991;48.682;9.030;2023-04-25T03:30:54;7.60;99.90
3954;DHT22;1991;48.682;9.030;2023-04-25T03:33:19;7.60;99.90
3954;DHT22;1991;48.682;9.030;2023-04-25T03:35:45;7.60;99.90
3954;DHT22;1991;48.682;9.030;2023-04-25T03:38:10;7.60;99.90
3954;DHT22;1991;48.682;9.030;2023-04-25T03:40:36;7.60;99.90
3954;DHT22;1991;48.682;9.030;2023-04-25T03:43:02;7.50;99.90
3954;DHT22;1991;48.682;9.030;2023-04-25T03:45:27;7.50;99.90
3954;DHT22;1991;48.682;9.030;2023-04-25T03:47:53;7.50;99.90
3954;DHT22;1991;48.682;9.030;2023-04-25T03:50:18;7.50;99.90
3954;DHT22;1991;48.682;9.030;2023-04-25T03:52:44;7.40;99.90
3954;DHT22;1991;48.682;9.030;2023-04-25T03:55:09;7.40;99.90
3954;DHT22;1991;48.682;9.030;2023-04-25T03:57:35;7.40;99.90
3954;DHT22;1991;48.682;9.030;2023-04-25T04:00:01;7.40;99.90
3954;DHT22;1991;48.682;9.030;2023-04-25T04:02:27;7.40;99.90
3954;DHT22;1991;48.682;9.030;2023-04-25T04:04:52;7.40;99.90
3954;DHT22;1991;48.682;9.030;2023-04-25T04:07:18;7.40;99.90
3954;DHT22;1991;48.682;9.030;2023-04-25T04:09:44;7.40;99.90
3954;DHT22;1991;48.682;9.030;2023-04-25T04:12:09;7.40;99.90
3954;DHT22;1991;48.682;9.030;2023-04-25T04:14:35;7.50;99.90
3954;DHT22;1991;48.682;9.030;2023-04-25T04:17:01;7.50;99.90
3954;DHT22;1991;48.682;9.030;2023-04-25T04:19:26;7.50;99.90
3954;DHT22;1991;48.682;9.030;2023-04-25T04:21:52;7.40;99.90
3954;DHT22;1991;48.682;9.030;2023-04-25T04:24:17;7.40;99.90
3954;DHT22;1991;48.682;9.030;2023-04-25T04:26:43;7.30;99.90
3954;DHT22;1991;48.682;9.030;2023-04-25T04:29:10;7.30;99.90
3954;DHT22;1991;48.682;9.030;2023-04-25T04:31:36;7.30;99.90
3954;DHT22;1991;48.682;9.030;2023-04-25T04:34:02;7.30;99.90
3954;DHT22;1991;48.682;9.030;2023-04-25T04:36:29;7.30;99.90
3954;DHT22;1991;48.682;9.030;2023-04-25T04:38:54;7.30;99.90
3954;DHT22;1991;48.682;9.030;2023-04-25T04:41:22;7.30;99.90
3954;DHT22;1991;48.682;9.030;2023-04-25T04:43:47;7.30;99.90
3954;DHT22;1991;48.682;9.030;2023-04-25T04:46:13;7.30;99.90
3954;DHT22;1991;48.682;9.030;2023-04-25T04:48:39;7.30;99.90
3954;DHT22;1991;48.682;9.030;2023-04-25T04:51:05;7.40;99.90
3954;DHT22;1991;48.682;9.030;2023-04-25T04:53:31;7.40;99.90
3954;DHT22;1991;48.682;9.030;2023-04-25T04:55:57;7.40;99.90
3954;DHT22;1991;48.682;9.030;2023-04-25T04:58:23;7.50;99.90
3954;DHT22;1991;48.682;9.030;2023-04-25T05:00:49;7.50;99.90
3954;DHT22;1991;48.682;9.030;2023-04-25T05:03:15;7.50;99.90
3954;DHT22;1991;48.682;9.030;2023-04-25T05:05:41;7.60;99.90
3954;DHT22;1991;48.682;9.030;2023-04-25T05:08:07;7.60;99.90
3954;DHT22;1991;48.682;9.030;2023-04-25T05:10:33;7.70;99.90
3954;DHT22;1991;48.682;9.030;2023-04-25T05:12:58;7.70;99.90
3954;DHT22;1991;48.682;9.030;2023-04-25T05:15:24;7.70;99.90
3954;DHT22;1991;48.682;9.030;2023-04-25T05:17:50;7.70;99.90
3954;DHT22;1991;48.682;9.030;2023-04-25T05:20:15;7.70;99.90
3954;DHT22;1991;48.682;9.030;2023-04-25T05:22:41;7.70;99.90
3954;DHT22;1991;48.682;9.030;2023-04-25T05:25:08;7.70;99.90
3954;DHT22;1991;48.682;9.030;2023-04-25T05:27:33;7.60;99.90
3954;DHT22;1991;48.682;9.030;2023-04-25T05:29:59;7.60;99.90
3954;DHT22;1991;48.682;9.030;2023-04-25T05:32:25;7.60;99.90
3954;DHT22;1991;48.682;9.030;2023-04-25T05:34:50;7.70;99.90
3954;DHT22;1991;48.682;9.030;2023-04-25T05:37:17;7.60;99.90
3954;DHT22;1991;48.682;9.030;2023-04-25T05:39:42;7.60;99.90
3954;DHT22;1991;48.682;9.030;2023-04-25T05:42:08;7.70;99.90
3954;DHT22;1991;48.682;9.030;2023-04-25T05:44:34;7.70;99.90
3954;DHT22;1991;48.682;9.030;2023-04-25T05:46:59;7.70;99.90
3954;DHT22;1991;48.682;9.030;2023-04-25T05:49:25;7.70;99.90
3954;DHT22;1991;48.682;9.030;2023-04-25T05:51:50;7.70;99.90
3954;DHT22;1991;48.682;9.030;2023-04-25T05:54:16;7.70;99.90
3954;DHT22;1991;48.682;9.030;2023-04-25T05:56:42;7.70;99.90
3954;DHT22;1991;48.682;9.030;2023-04-25T05:59:07;7.80;99.90
3954;DHT22;1991;48.682;9.030;2023-04-25T06:01:33;7.80;99.90
3954;DHT22;1991;48.682;9.030;2023-04-25T06:03:58;8.00;99.90
3954;DHT22;1991;48.682;9.030;2023-04-25T06:06:24;8.20;99.90
3954;DHT22;1991;48.682;9.030;2023-04-25T06:08:50;8.20;99.90
3954;DHT22;1991;48.682;9.030;2023-04-25T06:11:16;8.20;99.90
3954;DHT22;1991;48.682;9.030;2023-04-25T06:13:42;8.30;99.90
3954;DHT22;1991;48.682;9.030;2023-04-25T06:16:07;8.30;99.90
3954;DHT22;1991;48.682;9.030;2023-04-25T06:18:33;8.40;99.90
3954;DHT22;1991;48.682;9.030;2023-04-25T06:20:58;8.50;99.90
3954;DHT22;1991;48.682;9.030;2023-04-25T06:23:24;8.60;99.90
3954;DHT22;1991;48.682;9.030;2023-04-25T06:25:50;8.60;99.90
3954;DHT22;1991;48.682;9.030;2023-04-25T06:28:15;8.60;99.90
3954;DHT22;1991;48.682;9.030;2023-04-25T06:30:41;8.60;99.90
3954;DHT22;1991;48.682;9.030;2023-04-25T06:33:06;8.60;99.90
3954;DHT22;1991;48.682;9.030;2023-04-25T06:35:34;8.50;99.90
3954;DHT22;1991;48.682;9.030;2023-04-25T06:37:59;8.40;99.90
3954;DHT22;1991;48.682;9.030;2023-04-25T06:40:25;8.40;99.90
3954;DHT22;1991;48.682;9.030;2023-04-25T06:42:51;8.30;99.90
3954;DHT22;1991;48.682;9.030;2023-04-25T06:45:16;8.20;99.90
3954;DHT22;1991;48.682;9.030;2023-04-25T06:47:42;8.20;99.90
3954;DHT22;1991;48.682;9.030;2023-04-25T06:50:08;8.20;99.90
3954;DHT22;1991;48.682;9.030;2023-04-25T06:52:34;8.20;99.90
3954;DHT22;1991;48.682;9.030;2023-04-25T06:54:59;8.20;99.90
3954;DHT22;1991;48.682;9.030;2023-04-25T06:57:25;8.20;99.90
3954;DHT22;1991;48.682;9.030;2023-04-25T06:59:51;8.30;99.90
3954;DHT22;1991;48.682;9.030;2023-04-25T07:02:16;8.30;99.90
3954;DHT22;1991;48.682;9.030;2023-04-25T07:04:42;8.30;99.90
3954;DHT22;1991;48.682;9.030;2023-04-25T07:07:08;8.30;99.90
3954;DHT22;1991;48.682;9.030;2023-04-25T07:09:33;8.30;99.90
3954;DHT22;1991;48.682;9.030;2023-04-25T07:12:00;8.30;99.90
3954;DHT22;1991;48.682;9.030;2023-04-25T07:14:27;8.30;99.90
3954;DHT22;1991;48.682;9.030;2023-04-25T07:16:52;8.40;99.90
3954;DHT22;1991;48.682;9.030;2023-04-25T07:19:18;8.40;99.90
3954;DHT22;1991;48.682;9.030;2023-04-25T07:21:43;8.40;99.90
3954;DHT22;1991;48.682;9.030;2023-04-25T07:24:09;8.40;99.90
3954;DHT22;1991;48.682;9.030;2023-04-25T07:26:35;8.40;99.90
3954;DHT22;1991;48.682;9.030;2023-04-25T07:29:00;8.40;99.90
3954;DHT22;1991;48.682;9.030;2023-04-25T07:31:26;8.40;99.90
3954;DHT22;1991;48.682;9.030;2023-04-25T07:33:52;8.30;99.90
3954;DHT22;1991;48.682;9.030;2023-04-25T07:36:17;8.30;99.90
3954;DHT22;1991;48.682;9.030;2023-04-25T07:38:43;8.30;99.90
3954;DHT22;1991;48.682;9.030;2023-04-25T07:41:09;8.40;99.90
3954;DHT22;1991;48.682;9.030;2023-04-25T07:43:34;8.40;99.90
3954;DHT22;1991;48.682;9.030;2023-04-25T07:46:00;8.40;99.90
3954;DHT22;1991;48.682;9.030;2023-04-25T07:48:26;8.30;99.90
3954;DHT22;1991;48.682;9.030;2023-04-25T07:50:51;8.20;99.90
3954;DHT22;1991;48.682;9.030;2023-04-25T07:53:17;8.10;99.90
3954;DHT22;1991;48.682;9.030;2023-04-25T07:55:43;8.00;99.90
3954;DHT22;1991;48.682;9.030;2023-04-25T07:58:10;8.00;99.90
3954;DHT22;1991;48.682;9.030;2023-04-25T08:00:36;8.00;99.90
3954;DHT22;1991;48.682;9.030;2023-04-25T08:03:02;8.00;99.90
3954;DHT22;1991;48.682;9.030;2023-04-25T08:05:28;8.10;99.90
3954;DHT22;1991;48.682;9.030;2023-04-25T08:07:54;8.20;99.90
3954;DHT22;1991;48.682;9.030;2023-04-25T08:10:20;8.10;99.90
3954;DHT22;1991;48.682;9.030;2023-04-25T08:12:48;8.00;99.90
3954;DHT22;1991;48.682;9.030;2023-04-25T08:15:14;8.00;99.90
3954;DHT22;1991;48.682;9.030;2023-04-25T08:17:40;8.10;99.90
3954;DHT22;1991;48.682;9.030;2023-04-25T08:20:06;7.90;99.90
3954;DHT22;1991;48.682;9.030;2023-04-25T08:22:32;8.00;99.90
3954;DHT22;1991;48.682;9.030;2023-04-25T08:24:57;8.00;99.90
3954;DHT22;1991;48.682;9.030;2023-04-25T08:27:24;7.90;99.90
3954;DHT22;1991;48.682;9.030;2023-04-25T08:29:49;7.90;99.90
3954;DHT22;1991;48.682;9.030;2023-04-25T08:32:16;7.80;99.90
3954;DHT22;1991;48.682;9.030;2023-04-25T08:34:42;7.80;99.90
3954;DHT22;1991;48.682;9.030;2023-04-25T08:37:09;7.80;99.90
3954;DHT22;1991;48.682;9.030;2023-04-25T08:39:36;7.70;99.90
3954;DHT22;1991;48.682;9.030;2023-04-25T08:42:03;7.70;99.90
3954;DHT22;1991;48.682;9.030;2023-04-25T08:44:33;7.70;99.90
3954;DHT22;1991;48.682;9.030;2023-04-25T08:46:59;7.70;99.90
3954;DHT22;1991;48.682;9.030;2023-04-25T08:49:25;7.60;99.90
3954;DHT22;1991;48.682;9.030;2023-04-25T08:51:53;7.60;99.90
3954;DHT22;1991;48.682;9.030;2023-04-25T08:54:21;7.60;99.90
3954;DHT22;1991;48.682;9.030;2023-04-25T08:56:51;7.60;99.90
3954;DHT22;1991;48.682;9.030;2023-04-25T08:59:17;7.60;99.90
3954;DHT22;1991;48.682;9.030;2023-04-25T09:01:43;7.50;99.90
3954;DHT22;1991;48.682;9.030;2023-04-25T09:04:11;7.50;99.90
3954;DHT22;1991;48.682;9.030;2023-04-25T09:06:37;7.50;99.90
3954;DHT22;1991;48.682;9.030;2023-04-25T09:09:04;7.40;99.90
3954;DHT22;1991;48.682;9.030;2023-04-25T09:11:31;7.40;99.90
3954;DHT22;1991;48.682;9.030;2023-04-25T09:14:13;7.30;99.90
3954;DHT22;1991;48.682;9.030;2023-04-25T09:16:58;7.30;99.90
3954;DHT22;1991;48.682;9.030;2023-04-25T09:19:35;7.40;99.90
3954;DHT22;1991;48.682;9.030;2023-04-25T09:22:03;7.40;99.90
3954;DHT22;1991;48.682;9.030;2023-04-25T09:24:39;7.40;99.90
3954;DHT22;1991;48.682;9.030;2023-04-25T09:27:07;7.30;99.90
3954;DHT22;1991;48.682;9.030;2023-04-25T09:29:35;7.30;99.90
3954;DHT22;1991;48.682;9.030;2023-04-25T09:32:18;7.10;99.90
3954;DHT22;1991;48.682;9.030;2023-04-25T09:34:52;7.00;99.90
3954;DHT22;1991;48.682;9.030;2023-04-25T09:37:26;7.00;99.90
3954;DHT22;1991;48.682;9.030;2023-04-25T09:39:59;7.00;99.90
3954;DHT22;1991;48.682;9.030;2023-04-25T09:42:28;7.00;99.90
3954;DHT22;1991;48.682;9.030;2023-04-25T09:44:55;7.00;99.90
3954;DHT22;1991;48.682;9.030;2023-04-25T09:47:23;7.00;99.90
3954;DHT22;1991;48.682;9.030;2023-04-25T09:49:50;6.80;99.90
3954;DHT22;1991;48.682;9.030;2023-04-25T09:52:18;6.70;99.90
3954;DHT22;1991;48.682;9.030;2023-04-25T09:54:48;6.70;99.90
3954;DHT22;1991;48.682;9.030;2023-04-25T09:57:16;6.70;99.90
3954;DHT22;1991;48.682;9.030;2023-04-25T09:59:47;6.70;99.90
3954;DHT22;1991;48.682;9.030;2023-04-25T10:02:14;6.70;99.90
3954;DHT22;1991;48.682;9.030;2023-04-25T10:04:41;6.80;99.90
3954;DHT22;1991;48.682;9.030;2023-04-25T10:07:08;6.70;99.90
3954;DHT22;1991;48.682;9.030;2023-04-25T10:09:37;6.70;99.90
3954;DHT22;1991;48.682;9.030;2023-04-25T10:12:03;6.60;99.90
3954;DHT22;1991;48.682;9.030;2023-04-25T10:14:31;6.50;99.90
3954;DHT22;1991;48.682;9.030;2023-04-25T10:16:58;6.50;99.90
3954;DHT22;1991;48.682;9.030;2023-04-25T10:19:25;6.40;99.90
3954;DHT22;1991;48.682;9.030;2023-04-25T10:24:38;6.50;99.90
3954;DHT22;1991;48.682;9.030;2023-04-25T10:27:05;6.60;99.90
3954;DHT22;1991;48.682;9.030;2023-04-25T10:29:31;6.80;99.90
3954;DHT22;1991;48.682;9.030;2023-04-25T10:31:57;6.80;99.90
3954;DHT22;1991;48.682;9.030;2023-04-25T10:34:30;6.90;99.90
3954;DHT22;1991;48.682;9.030;2023-04-25T10:37:03;6.90;99.90
3954;DHT22;1991;48.682;9.030;2023-04-25T10:39:29;6.90;99.90
3954;DHT22;1991;48.682;9.030;2023-04-25T10:41:58;7.00;99.90
3954;DHT22;1991;48.682;9.030;2023-04-25T10:44:30;7.00;99.90
3954;DHT22;1991;48.682;9.030;2023-04-25T10:46:57;6.90;99.90
3954;DHT22;1991;48.682;9.030;2023-04-25T10:49:37;7.00;99.90
3954;DHT22;1991;48.682;9.030;2023-04-25T10:54:55;7.00;99.90
3954;DHT22;1991;48.682;9.030;2023-04-25T10:57:40;7.00;99.90
3954;DHT22;1991;48.682;9.030;2023-04-25T11:00:11;7.00;99.90
3954;DHT22;1991;48.682;9.030;2023-04-25T11:02:45;7.00;99.90
3954;DHT22;1991;48.682;9.030;2023-04-25T11:07:51;7.10;99.90
3954;DHT22;1991;48.682;9.030;2023-04-25T11:10:18;7.10;99.90
3954;DHT22;1991;48.682;9.030;2023-04-25T11:12:45;7.10;99.90
3954;DHT22;1991;48.682;9.030;2023-04-25T11:15:11;7.20;99.90
3954;DHT22;1991;48.682;9.030;2023-04-25T11:17:38;7.40;99.90
3954;DHT22;1991;48.682;9.030;2023-04-25T11:20:06;7.40;99.90
3954;DHT22;1991;48.682;9.030;2023-04-25T11:22:34;7.40;99.90
3954;DHT22;1991;48.682;9.030;2023-04-25T11:25:05;7.40;99.90
3954;DHT22;1991;48.682;9.030;2023-04-25T11:27:31;7.30;99.90
3954;DHT22;1991;48.682;9.030;2023-04-25T11:29:56;7.30;99.90
3954;DHT22;1991;48.682;9.030;2023-04-25T11:32:22;7.30;99.90
3954;DHT22;1991;48.682;9.030;2023-04-25T11:34:48;7.40;99.90
3954;DHT22;1991;48.682;9.030;2023-04-25T11:37:14;7.50;99.90
3954;DHT22;1991;48.682;9.030;2023-04-25T11:39:44;7.70;99.90
3954;DHT22;1991;48.682;9.030;2023-04-25T11:42:11;7.80;99.90
3954;DHT22;1991;48.682;9.030;2023-04-25T11:44:38;8.00;99.90
3954;DHT22;1991;48.682;9.030;2023-04-25T11:47:05;8.10;99.90
3954;DHT22;1991;48.682;9.030;2023-04-25T11:49:31;8.20;99.90
3954;DHT22;1991;48.682;9.030;2023-04-25T11:51:57;8.20;99.90
3954;DHT22;1991;48.682;9.030;2023-04-25T11:54:23;8.30;99.90
3954;DHT22;1991;48.682;9.030;2023-04-25T11:56:48;8.50;99.90
3954;DHT22;1991;48.682;9.030;2023-04-25T11:59:14;8.50;99.90
3954;DHT22;1991;48.682;9.030;2023-04-25T12:01:41;8.60;99.90
3954;DHT22;1991;48.682;9.030;2023-04-25T12:04:12;8.80;99.90
3954;DHT22;1991;48.682;9.030;2023-04-25T12:06:38;8.90;99.90
3954;DHT22;1991;48.682;9.030;2023-04-25T12:09:07;9.10;99.90
3954;DHT22;1991;48.682;9.030;2023-04-25T12:11:41;9.20;99.90
3954;DHT22;1991;48.682;9.030;2023-04-25T12:14:08;9.40;99.90
3954;DHT22;1991;48.682;9.030;2023-04-25T12:16:46;9.40;99.90
3954;DHT22;1991;48.682;9.030;2023-04-25T12:19:16;9.40;99.90
3954;DHT22;1991;48.682;9.030;2023-04-25T12:21:43;9.50;99.90
3954;DHT22;1991;48.682;9.030;2023-04-25T12:24:17;9.40;99.90
3954;DHT22;1991;48.682;9.030;2023-04-25T12:26:53;9.40;99.90
3954;DHT22;1991;48.682;9.030;2023-04-25T12:29:21;9.30;99.90
3954;DHT22;1991;48.682;9.030;2023-04-25T12:31:47;9.30;99.90
3954;DHT22;1991;48.682;9.030;2023-04-25T12:34:14;9.20;99.90
3954;DHT22;1991;48.682;9.030;2023-04-25T12:36:40;9.30;99.90
3954;DHT22;1991;48.682;9.030;2023-04-25T12:39:06;9.30;99.90
3954;DHT22;1991;48.682;9.030;2023-04-25T12:41:32;9.20;99.90
3954;DHT22;1991;48.682;9.030;2023-04-25T12:43:58;9.10;99.90
3954;DHT22;1991;48.682;9.030;2023-04-25T12:46:24;9.10;99.90
3954;DHT22;1991;48.682;9.030;2023-04-25T12:48:49;9.10;99.90
3954;DHT22;1991;48.682;9.030;2023-04-25T12:51:15;9.00;99.90
3954;DHT22;1991;48.682;9.030;2023-04-25T12:53:41;9.10;99.90
3954;DHT22;1991;48.682;9.030;2023-04-25T12:56:07;9.20;99.90
3954;DHT22;1991;48.682;9.030;2023-04-25T12:58:33;9.20;99.90
3954;DHT22;1991;48.682;9.030;2023-04-25T13:00:59;9.40;99.90
3954;DHT22;1991;48.682;9.030;2023-04-25T13:03:25;9.40;99.90
3954;DHT22;1991;48.682;9.030;2023-04-25T13:05:51;9.30;99.90
3954;DHT22;1991;48.682;9.030;2023-04-25T13:08:20;9.50;99.90
3954;DHT22;1991;48.682;9.030;2023-04-25T13:10:47;9.60;99.90
3954;DHT22;1991;48.682;9.030;2023-04-25T13:13:13;9.80;99.90
3954;DHT22;1991;48.682;9.030;2023-04-25T13:15:39;9.90;99.90
3954;DHT22;1991;48.682;9.030;2023-04-25T13:18:04;10.10;99.90
3954;DHT22;1991;48.682;9.030;2023-04-25T13:20:33;10.20;99.90
3954;DHT22;1991;48.682;9.030;2023-04-25T13:22:59;10.40;99.90
3954;DHT22;1991;48.682;9.030;2023-04-25T13:25:25;10.70;99.90
3954;DHT22;1991;48.682;9.030;2023-04-25T13:27:51;10.60;99.90
3954;DHT22;1991;48.682;9.030;2023-04-25T13:30:16;10.50;99.90
3954;DHT22;1991;48.682;9.030;2023-04-25T13:32:42;10.50;99.40
3954;DHT22;1991;48.682;9.030;2023-04-25T13:35:11;10.60;99.90
3954;DHT22;1991;48.682;9.030;2023-04-25T13:37:38;10.80;99.30
3954;DHT22;1991;48.682;9.030;2023-04-25T13:40:06;11.10;99.90
3954;DHT22;1991;48.682;9.030;2023-04-25T13:42:34;11.40;99.90
3954;DHT22;1991;48.682;9.030;2023-04-25T13:45:00;11.60;99.90
3954;DHT22;1991;48.682;9.030;2023-04-25T13:47:26;11.50;99.90
3954;DHT22;1991;48.682;9.030;2023-04-25T13:49:52;11.50;98.70
3954;DHT22;1991;48.682;9.030;2023-04-25T13:52:18;11.30;99.90
3954;DHT22;1991;48.682;9.030;2023-04-25T13:54:43;11.20;99.90
3954;DHT22;1991;48.682;9.030;2023-04-25T13:57:10;10.90;97.40
3954;DHT22;1991;48.682;9.030;2023-04-25T13:59:36;10.70;99.90
3954;DHT22;1991;48.682;9.030;2023-04-25T14:02:02;10.60;98.60
3954;DHT22;1991;48.682;9.030;2023-04-25T14:04:28;10.80;99.90
3954;DHT22;1991;48.682;9.030;2023-04-25T14:06:54;10.90;98.90
3954;DHT22;1991;48.682;9.030;2023-04-25T14:09:20;11.10;99.90
3954;DHT22;1991;48.682;9.030;2023-04-25T14:11:51;11.40;99.90
3954;DHT22;1991;48.682;9.030;2023-04-25T14:14:17;11.60;98.30
3954;DHT22;1991;48.682;9.030;2023-04-25T14:16:42;11.50;96.20
3954;DHT22;1991;48.682;9.030;2023-04-25T14:19:08;11.50;94.70
3954;DHT22;1991;48.682;9.030;2023-04-25T14:21:33;11.40;95.80
3954;DHT22;1991;48.682;9.030;2023-04-25T14:23:59;11.50;97.20
3954;DHT22;1991;48.682;9.030;2023-04-25T14:26:25;11.30;96.50
3954;DHT22;1991;48.682;9.030;2023-04-25T14:28:51;11.30;97.70
3954;DHT22;1991;48.682;9.030;2023-04-25T14:31:17;11.20;97.80
3954;DHT22;1991;48.682;9.030;2023-04-25T14:33:43;11.20;97.70
3954;DHT22;1991;48.682;9.030;2023-04-25T14:36:09;11.10;98.70
3954;DHT22;1991;48.682;9.030;2023-04-25T14:38:34;11.10;98.70
3954;DHT22;1991;48.682;9.030;2023-04-25T14:41:00;10.80;95.70
3954;DHT22;1991;48.682;9.030;2023-04-25T14:43:26;10.70;96.60
3954;DHT22;1991;48.682;9.030;2023-04-25T14:45:51;10.70;97.80
3954;DHT22;1991;48.682;9.030;2023-04-25T14:48:18;10.60;98.10
3954;DHT22;1991;48.682;9.030;2023-04-25T14:50:47;10.40;94.50
3954;DHT22;1991;48.682;9.030;2023-04-25T14:53:13;10.50;96.50
3954;DHT22;1991;48.682;9.030;2023-04-25T14:55:39;10.60;94.20
3954;DHT22;1991;48.682;9.030;2023-04-25T14:58:05;10.80;95.80
3954;DHT22;1991;48.682;9.030;2023-04-25T15:00:32;11.10;96.50
3954;DHT22;1991;48.682;9.030;2023-04-25T15:02:58;11.20;93.80
3954;DHT22;1991;48.682;9.030;2023-04-25T15:05:24;11.30;91.80
3954;DHT22;1991;48.682;9.030;2023-04-25T15:07:50;11.40;92.60
3954;DHT22;1991;48.682;9.030;2023-04-25T15:10:17;11.60;94.30
3954;DHT22;1991;48.682;9.030;2023-04-25T15:12:43;11.70;91.70
3954;DHT22;1991;48.682;9.030;2023-04-25T15:15:10;12.00;90.70
3954;DHT22;1991;48.682;9.030;2023-04-25T15:17:45;12.30;92.30
3954;DHT22;1991;48.682;9.030;2023-04-25T15:20:12;12.60;88.30
3954;DHT22;1991;48.682;9.030;2023-04-25T15:22:43;12.70;84.40
3954;DHT22;1991;48.682;9.030;2023-04-25T15:25:09;12.40;88.60
3954;DHT22;1991;48.682;9.030;2023-04-25T15:27:39;12.30;85.80
3954;DHT22;1991;48.682;9.030;2023-04-25T15:30:11;12.40;86.70
3954;DHT22;1991;48.682;9.030;2023-04-25T15:32:38;12.60;86.70
3954;DHT22;1991;48.682;9.030;2023-04-25T15:35:05;12.70;86.80
3954;DHT22;1991;48.682;9.030;2023-04-25T15:37:32;12.60;85.80
3954;DHT22;1991;48.682;9.030;2023-04-25T15:40:15;12.50;84.80
3954;DHT22;1991;48.682;9.030;2023-04-25T15:42:45;12.30;84.50
3954;DHT22;1991;48.682;9.030;2023-04-25T15:45:21;12.30;83.60
3954;DHT22;1991;48.682;9.030;2023-04-25T15:47:49;12.10;82.90
3954;DHT22;1991;48.682;9.030;2023-04-25T15:50:17;12.10;84.20
3954;DHT22;1991;48.682;9.030;2023-04-25T15:52:43;12.00;84.30
3954;DHT22;1991;48.682;9.030;2023-04-25T15:55:09;12.10;86.60
3954;DHT22;1991;48.682;9.030;2023-04-25T15:57:36;12.00;82.80
3954;DHT22;1991;48.682;9.030;2023-04-25T16:00:03;11.80;80.80
3954;DHT22;1991;48.682;9.030;2023-04-25T16:02:32;11.70;81.70
3954;DHT22;1991;48.682;9.030;2023-04-25T16:04:57;11.50;82.40
3954;DHT22;1991;48.682;9.030;2023-04-25T16:07:23;11.40;83.70
3954;DHT22;1991;48.682;9.030;2023-04-25T16:09:49;11.30;85.20
3954;DHT22;1991;48.682;9.030;2023-04-25T16:12:14;11.30;85.00
3954;DHT22;1991;48.682;9.030;2023-04-25T16:14:40;11.20;85.50
3954;DHT22;1991;48.682;9.030;2023-04-25T16:17:06;11.20;87.90
3954;DHT22;1991;48.682;9.030;2023-04-25T16:19:31;11.10;89.70